createdAt,value
2023-05-24T00:01:57.056Z,5.57
2023-05-24T00:04:25.263Z,4.90
2023-05-24T00:06:54.913Z,4.20
2023-05-24T00:09:22.128Z,5.37
2023-05-24T00:11:48.856Z,4.37
2023-05-24T00:14:15.973Z,4.67
2023-05-24T00:16:42.613Z,4.97
2023-05-24T00:19:11.295Z,4.33
2023-05-24T00:21:38.407Z,3.60
2023-05-24T00:24:06.766Z,5.23
2023-05-24T00:26:33.388Z,4.20
2023-05-24T00:28:59.986Z,5.00
2023-05-24T00:31:27.090Z,4.40
2023-05-24T00:33:53.724Z,4.10
2023-05-24T00:36:20.261Z,4.63
2023-05-24T00:38:48.053Z,4.43
2023-05-24T00:41:16.292Z,5.13
2023-05-24T00:43:46.099Z,4.00
2023-05-24T00:46:15.745Z,4.47
2023-05-24T00:48:43.376Z,4.40
2023-05-24T00:51:12.112Z,6.07
2023-05-24T00:53:41.325Z,4.57
2023-05-24T00:56:09.362Z,5.77
2023-05-24T00:58:36.518Z,5.20
2023-05-24T01:01:03.690Z,5.10
2023-05-24T01:03:30.596Z,4.50
2023-05-24T01:06:03.397Z,5.00
2023-05-24T01:08:43.227Z,4.70
2023-05-24T01:11:45.884Z,4.73
2023-05-24T01:14:29.795Z,4.37
2023-05-24T01:17:05.179Z,5.30
2023-05-24T01:19:48.958Z,4.40
2023-05-24T01:22:37.902Z,4.17
2023-05-24T01:25:09.302Z,3.73
2023-05-24T01:27:38.318Z,5.53
2023-05-24T01:30:06.021Z,5.00
2023-05-24T01:32:33.135Z,5.00
2023-05-24T01:34:59.799Z,5.70
2023-05-24T01:37:26.435Z,5.27
2023-05-24T01:39:53.366Z,5.40
2023-05-24T01:42:46.101Z,6.00
2023-05-24T01:45:47.392Z,5.70
2023-05-24T01:48:47.121Z,5.40
2023-05-24T01:51:18.386Z,5.30
2023-05-24T01:53:49.200Z,6.03
2023-05-24T01:56:17.636Z,4.83
2023-05-24T01:58:46.673Z,5.70
2023-05-24T02:01:14.250Z,5.00
2023-05-24T02:03:41.335Z,5.30
2023-05-24T02:06:08.518Z,6.13
2023-05-24T02:08:35.155Z,5.97
2023-05-24T02:11:02.530Z,5.50
2023-05-24T02:13:29.935Z,6.07
2023-05-24T02:15:56.516Z,5.10
2023-05-24T02:18:25.574Z,6.57
2023-05-24T02:20:53.359Z,5.90
2023-05-24T02:23:19.960Z,5.63
2023-05-24T02:25:46.613Z,5.73
2023-05-24T02:28:13.258Z,6.17
2023-05-24T02:30:40.211Z,5.10
2023-05-24T02:33:07.042Z,7.20
2023-05-24T02:35:34.316Z,5.50
2023-05-24T02:38:02.492Z,6.53
2023-05-24T02:40:29.179Z,6.57
2023-05-24T02:42:55.874Z,5.77
2023-05-24T02:45:22.458Z,6.63
2023-05-24T02:47:49.280Z,6.23
2023-05-24T02:50:16.253Z,6.00
2023-05-24T02:52:42.854Z,5.37
2023-05-24T02:55:09.806Z,5.00
2023-05-24T02:57:37.823Z,6.40
2023-05-24T03:00:09.342Z,6.10
2023-05-24T03:02:38.525Z,6.50
2023-05-24T03:05:06.338Z,6.13
2023-05-24T03:07:32.955Z,6.13
2023-05-24T03:10:00.312Z,5.53
2023-05-24T03:12:26.927Z,5.93
2023-05-24T03:14:54.154Z,5.67
2023-05-24T03:17:21.416Z,5.77
2023-05-24T03:19:49.037Z,6.20
2023-05-24T03:22:15.689Z,6.10
2023-05-24T03:24:42.252Z,5.50
2023-05-24T03:27:10.999Z,5.20
2023-05-24T03:29:37.869Z,5.43
2023-05-24T03:32:05.826Z,5.20
2023-05-24T03:34:33.670Z,7.50
2023-05-24T03:37:00.587Z,6.80
2023-05-24T03:39:28.052Z,5.53
2023-05-24T03:42:09.621Z,6.93
2023-05-24T03:44:36.748Z,5.90
2023-05-24T03:47:03.833Z,5.23
2023-05-24T03:49:31.826Z,7.07
2023-05-24T03:51:58.536Z,6.90
2023-05-24T03:54:25.121Z,4.90
2023-05-24T03:56:53.465Z,6.10
2023-05-24T03:59:20.482Z,5.77
2023-05-24T04:01:47.698Z,5.20
2023-05-24T04:04:14.946Z,6.57
2023-05-24T04:06:41.901Z,5.30
2023-05-24T04:09:10.035Z,6.17
2023-05-24T04:11:36.784Z,6.03
2023-05-24T04:14:03.670Z,5.97
2023-05-24T04:16:34.562Z,6.67
2023-05-24T04:19:05.013Z,5.00
2023-05-24T04:21:33.225Z,6.27
2023-05-24T04:24:01.586Z,5.17
2023-05-24T04:26:28.252Z,5.50
2023-05-24T04:28:55.594Z,5.60
2023-05-24T04:31:22.256Z,4.60
2023-05-24T04:33:50.057Z,6.00
2023-05-24T04:36:17.610Z,5.93
2023-05-24T04:38:46.093Z,4.83
2023-05-24T04:41:13.409Z,6.40
2023-05-24T04:43:40.667Z,7.50
2023-05-24T04:46:09.444Z,5.77
2023-05-24T04:48:36.501Z,5.77
2023-05-24T04:51:03.422Z,5.53
2023-05-24T04:53:30.389Z,6.53
2023-05-24T04:55:56.972Z,5.10
2023-05-24T04:58:23.717Z,5.20
2023-05-24T05:00:50.696Z,5.87
2023-05-24T05:03:17.407Z,5.90
2023-05-24T05:05:45.127Z,5.93
2023-05-24T05:08:12.172Z,5.90
2023-05-24T05:10:38.746Z,4.63
2023-05-24T05:13:05.695Z,5.33
2023-05-24T05:15:32.602Z,5.70
2023-05-24T05:17:59.328Z,4.73
2023-05-24T05:20:26.151Z,5.00
2023-05-24T05:22:53.247Z,5.13
2023-05-24T05:25:20.111Z,6.33
2023-05-24T05:27:47.129Z,4.87
2023-05-24T05:30:14.388Z,5.30
2023-05-24T05:32:41.129Z,6.80
2023-05-24T05:35:08.629Z,6.47
2023-05-24T05:37:35.171Z,6.07
2023-05-24T05:40:01.782Z,5.53
2023-05-24T05:42:28.396Z,5.47
2023-05-24T05:44:54.997Z,6.13
2023-05-24T05:47:21.641Z,5.50
2023-05-24T05:49:48.232Z,5.33
2023-05-24T05:52:14.787Z,6.00
2023-05-24T05:54:41.383Z,6.20
2023-05-24T05:57:10.421Z,5.97
2023-05-24T05:59:38.578Z,6.00
2023-05-24T06:02:06.834Z,5.53
2023-05-24T06:04:33.930Z,6.17
2023-05-24T06:07:00.820Z,5.03
2023-05-24T06:09:27.978Z,5.33
2023-05-24T06:11:54.644Z,4.87
2023-05-24T06:14:25.459Z,4.80
2023-05-24T06:16:54.579Z,6.03
2023-05-24T06:19:21.708Z,6.13
2023-05-24T06:21:49.484Z,5.37
2023-05-24T06:24:22.586Z,5.63
2023-05-24T06:26:51.212Z,5.70
2023-05-24T06:29:22.693Z,6.33
2023-05-24T06:31:50.795Z,5.17
2023-05-24T06:34:21.658Z,5.73
2023-05-24T06:36:50.959Z,5.40
2023-05-24T06:39:17.770Z,5.93
2023-05-24T06:41:44.899Z,5.47
2023-05-24T06:44:11.843Z,6.20
2023-05-24T06:46:39.309Z,5.33
2023-05-24T06:49:06.314Z,5.50
2023-05-24T06:51:36.695Z,4.87
2023-05-24T06:54:03.635Z,6.90
2023-05-24T06:56:30.981Z,4.77
2023-05-24T06:58:59.456Z,6.07
2023-05-24T07:01:27.565Z,5.90
2023-05-24T07:03:54.319Z,6.03
2023-05-24T07:06:21.328Z,5.77
2023-05-24T07:08:47.868Z,5.87
2023-05-24T07:11:14.969Z,5.03
2023-05-24T07:13:41.520Z,5.23
2023-05-24T07:16:08.322Z,5.00
2023-05-24T07:18:35.127Z,6.23
2023-05-24T07:21:01.711Z,5.47
2023-05-24T07:23:28.316Z,5.60
2023-05-24T07:25:55.196Z,5.90
2023-05-24T07:28:21.809Z,5.33
2023-05-24T07:30:48.910Z,6.33
2023-05-24T07:33:16.531Z,5.60
2023-05-24T07:35:43.258Z,6.20
2023-05-24T07:38:09.986Z,6.17
2023-05-24T07:40:36.620Z,5.00
2023-05-24T07:43:04.225Z,6.33
2023-05-24T07:45:31.699Z,6.30
2023-05-24T07:47:58.436Z,5.70
2023-05-24T07:50:25.332Z,6.27
2023-05-24T07:52:52.016Z,5.47
2023-05-24T07:55:18.649Z,6.93
2023-05-24T07:57:45.848Z,6.17
2023-05-24T08:00:14.751Z,5.87
2023-05-24T08:02:42.582Z,6.00
2023-05-24T08:05:12.270Z,6.67
2023-05-24T08:07:40.181Z,6.33
2023-05-24T08:10:07.754Z,6.33
2023-05-24T08:12:34.332Z,6.50
2023-05-24T08:15:00.944Z,6.27
2023-05-24T08:17:27.723Z,6.57
2023-05-24T08:19:54.415Z,5.50
2023-05-24T08:22:21.923Z,6.17
2023-05-24T08:24:48.719Z,6.30
2023-05-24T08:27:15.288Z,4.87
2023-05-24T08:29:42.536Z,6.50
2023-05-24T08:32:09.691Z,6.50
2023-05-24T08:34:37.588Z,6.27
2023-05-24T08:37:05.232Z,5.93
2023-05-24T08:39:32.480Z,6.73
2023-05-24T08:44:37.748Z,6.60
2023-05-24T08:47:04.845Z,5.30
2023-05-24T08:49:34.047Z,6.70
2023-05-24T08:52:02.126Z,6.53
2023-05-24T08:54:29.847Z,5.97
2023-05-24T08:56:57.607Z,6.27
2023-05-24T08:59:25.251Z,5.10
2023-05-24T09:01:54.470Z,4.43
2023-05-24T09:04:23.192Z,7.20
2023-05-24T09:06:51.723Z,5.33
2023-05-24T09:09:21.405Z,6.17
2023-05-24T09:11:51.884Z,5.40
2023-05-24T09:14:19.026Z,5.47
2023-05-24T09:16:46.637Z,5.10
2023-05-24T09:19:14.104Z,6.67
2023-05-24T09:21:40.876Z,4.97
2023-05-24T09:24:09.041Z,6.83
2023-05-24T09:26:38.604Z,4.03
2023-05-24T09:29:09.273Z,4.90
2023-05-24T09:31:37.414Z,5.13
2023-05-24T09:34:09.989Z,4.57
2023-05-24T09:36:41.841Z,4.60
2023-05-24T09:39:11.547Z,4.70
2023-05-24T09:41:38.794Z,4.03
2023-05-24T09:44:06.305Z,6.33
2023-05-24T09:46:36.366Z,4.53
2023-05-24T09:49:07.974Z,4.83
2023-05-24T09:51:38.260Z,5.17
2023-05-24T09:54:05.552Z,4.63
2023-05-24T09:56:35.894Z,5.00
2023-05-24T09:59:09.850Z,5.30
2023-05-24T10:01:36.643Z,5.13
2023-05-24T10:04:09.308Z,5.20
2023-05-24T10:06:38.440Z,4.93
2023-05-24T10:09:09.953Z,4.10
2023-05-24T10:11:37.274Z,5.20
2023-05-24T10:14:09.858Z,4.30
2023-05-24T10:16:38.443Z,4.60
2023-05-24T10:19:06.988Z,4.63
2023-05-24T10:21:38.798Z,4.80
2023-05-24T10:24:08.980Z,4.83
2023-05-24T10:31:25.548Z,4.10
2023-05-24T10:33:57.186Z,4.00
2023-05-24T10:36:28.898Z,4.20
2023-05-24T10:38:56.380Z,3.90
2023-05-24T10:41:27.060Z,3.73
2023-05-24T10:44:08.545Z,3.60
2023-05-24T10:46:36.266Z,4.10
2023-05-24T10:49:04.441Z,4.47
2023-05-24T10:51:35.326Z,4.03
2023-05-24T10:54:31.574Z,4.10
2023-05-24T10:57:04.647Z,5.43
2023-05-24T10:59:39.246Z,3.80
2023-05-24T11:02:15.352Z,3.80
2023-05-24T11:04:46.153Z,4.60
2023-05-24T11:07:15.864Z,4.53
2023-05-24T11:09:52.819Z,3.63
2023-05-24T11:12:23.507Z,5.03
2023-05-24T11:14:53.676Z,4.67
2023-05-24T11:17:22.722Z,4.70
2023-05-24T11:19:54.939Z,3.97
2023-05-24T11:22:24.342Z,5.80
2023-05-24T11:24:52.491Z,4.50
2023-05-24T11:27:19.137Z,3.60
2023-05-24T11:29:47.639Z,4.53
2023-05-24T11:32:19.672Z,4.70
2023-05-24T11:34:47.130Z,4.70
2023-05-24T11:37:16.061Z,5.33
2023-05-24T11:39:49.242Z,4.90
2023-05-24T11:42:16.242Z,4.60
2023-05-24T11:44:42.820Z,5.00
2023-05-24T11:47:09.495Z,5.10
2023-05-24T11:49:36.114Z,5.57
2023-05-24T11:52:03.177Z,4.73
2023-05-24T11:54:32.641Z,4.50
2023-05-24T11:56:59.608Z,4.80
2023-05-24T11:59:27.989Z,5.10
2023-05-24T12:02:04.357Z,5.20
2023-05-24T12:04:32.272Z,4.93
2023-05-24T12:06:59.350Z,5.20
2023-05-24T12:09:27.059Z,5.40
2023-05-24T12:11:54.368Z,5.47
2023-05-24T12:14:27.726Z,4.97
2023-05-24T12:16:56.498Z,5.47
2023-05-24T12:19:33.663Z,6.37
2023-05-24T12:22:04.949Z,5.17
2023-05-24T12:24:32.103Z,5.00
2023-05-24T12:27:06.655Z,5.40
2023-05-24T12:29:38.680Z,4.83
2023-05-24T12:32:11.760Z,4.60
2023-05-24T12:34:41.946Z,4.77
2023-05-24T12:37:09.261Z,5.20
2023-05-24T12:39:37.372Z,5.27
2023-05-24T12:42:04.640Z,4.80
2023-05-24T12:44:34.549Z,4.30
2023-05-24T12:47:03.929Z,5.80
2023-05-24T12:49:32.278Z,4.63
2023-05-24T12:51:59.737Z,5.60
2023-05-24T12:54:27.860Z,5.17
2023-05-24T12:56:56.702Z,4.83
2023-05-24T12:59:24.234Z,5.80
2023-05-24T13:01:51.913Z,5.13
2023-05-24T13:04:20.928Z,5.30
2023-05-24T13:06:48.329Z,4.90
2023-05-24T13:09:16.523Z,4.80
2023-05-24T13:11:43.470Z,5.40
2023-05-24T13:14:11.420Z,4.97
2023-05-24T13:16:38.017Z,4.73
2023-05-24T13:19:05.281Z,5.10
2023-05-24T13:21:32.186Z,4.10
2023-05-24T13:23:59.308Z,5.43
2023-05-24T13:26:26.105Z,4.90
2023-05-24T13:31:22.227Z,4.63
2023-05-24T13:33:49.162Z,5.27
2023-05-24T13:36:17.284Z,5.30
2023-05-24T13:38:44.431Z,4.77
2023-05-24T13:41:11.073Z,6.40
2023-05-24T13:43:37.853Z,5.33
2023-05-24T13:46:04.683Z,5.50
2023-05-24T13:48:31.427Z,7.40
2023-05-24T13:50:58.502Z,5.43
2023-05-24T13:53:26.530Z,5.50
2023-05-24T13:55:53.746Z,6.17
2023-05-24T13:58:20.381Z,5.53
2023-05-24T14:00:47.042Z,5.10
2023-05-24T14:03:15.737Z,4.67
2023-05-24T14:05:42.867Z,5.03
2023-05-24T14:08:09.572Z,5.90
2023-05-24T14:10:36.989Z,5.63
2023-05-24T14:15:36.864Z,4.57
2023-05-24T14:18:07.829Z,3.93
2023-05-24T14:20:40.189Z,3.83
2023-05-24T14:23:12.489Z,4.03
2023-05-24T14:25:39.171Z,3.80
2023-05-24T14:28:07.575Z,4.27
2023-05-24T14:30:34.414Z,4.37
2023-05-24T14:33:01.133Z,4.10
2023-05-24T14:35:28.477Z,4.20
2023-05-24T14:37:55.414Z,3.80
2023-05-24T14:40:22.272Z,4.40
2023-05-24T14:42:49.489Z,4.33
2023-05-24T14:45:16.325Z,4.90
2023-05-24T14:47:43.272Z,4.10
2023-05-24T14:50:10.451Z,4.57
2023-05-24T14:52:37.194Z,5.00
2023-05-24T14:55:04.486Z,4.60
2023-05-24T14:57:31.057Z,4.03
2023-05-24T14:59:57.621Z,3.90
2023-05-24T15:02:24.323Z,4.93
2023-05-24T15:04:51.408Z,5.23
2023-05-24T15:07:18.236Z,5.17
2023-05-24T15:09:44.806Z,4.37
2023-05-24T15:12:11.395Z,4.50
2023-05-24T15:14:38.632Z,4.87
2023-05-24T15:17:05.358Z,4.30
2023-05-24T15:19:32.126Z,4.80
2023-05-24T15:21:59.670Z,5.90
2023-05-24T15:24:26.701Z,5.10
2023-05-24T15:26:53.598Z,5.10
2023-05-24T15:29:21.366Z,4.90
2023-05-24T15:31:48.107Z,4.90
2023-05-24T15:34:14.886Z,5.00
2023-05-24T15:36:41.495Z,5.27
2023-05-24T15:39:08.997Z,4.33
2023-05-24T15:41:37.779Z,4.80
2023-05-24T15:44:08.805Z,4.80
2023-05-24T15:46:36.569Z,5.40
2023-05-24T15:49:03.718Z,4.00
2023-05-24T15:54:00.274Z,4.83
2023-05-24T15:56:27.698Z,5.60
2023-05-24T15:58:54.272Z,4.73
2023-05-24T16:01:21.427Z,4.23
2023-05-24T16:03:48.406Z,4.93
2023-05-24T16:06:15.230Z,5.10
2023-05-24T16:08:41.854Z,5.50
2023-05-24T16:11:10.006Z,4.90
2023-05-24T16:13:36.582Z,6.00
2023-05-24T16:16:03.215Z,6.13
2023-05-24T16:18:34.266Z,5.57
2023-05-24T16:21:01.064Z,5.30
2023-05-24T16:23:27.675Z,4.43
2023-05-24T16:25:54.615Z,4.50
2023-05-24T16:28:24.877Z,5.17
2023-05-24T16:30:55.623Z,6.43
2023-05-24T16:33:23.739Z,5.30
2023-05-24T16:35:55.882Z,5.67
2023-05-24T16:38:23.800Z,4.67
2023-05-24T16:40:50.787Z,4.43
2023-05-24T16:43:18.386Z,5.30
2023-05-24T16:45:45.682Z,5.63
2023-05-24T16:48:14.227Z,5.60
2023-05-24T16:50:41.329Z,5.30
2023-05-24T16:53:08.342Z,4.57
2023-05-24T16:55:35.878Z,5.03
2023-05-24T16:58:02.473Z,6.20
2023-05-24T17:00:29.054Z,5.40
2023-05-24T17:02:59.244Z,6.07
2023-05-24T17:05:26.412Z,5.80
2023-05-24T17:07:53.027Z,5.50
2023-05-24T17:10:19.708Z,5.70
2023-05-24T17:12:47.461Z,5.10
2023-05-24T17:15:14.065Z,5.47
2023-05-24T17:17:40.724Z,5.60
2023-05-24T17:20:07.821Z,5.80
2023-05-24T17:22:34.535Z,6.23
2023-05-24T17:25:01.499Z,5.10
2023-05-24T17:27:28.094Z,5.37
2023-05-24T17:29:54.697Z,5.50
2023-05-24T17:32:21.556Z,4.90
2023-05-24T17:34:48.402Z,6.03
2023-05-24T17:37:15.008Z,4.93
2023-05-24T17:39:41.602Z,5.57
2023-05-24T17:42:08.410Z,5.20
2023-05-24T17:44:35.453Z,5.50
2023-05-24T17:47:02.417Z,6.10
2023-05-24T17:49:29.542Z,5.77
2023-05-24T17:51:56.093Z,6.13
2023-05-24T17:54:22.870Z,5.47
2023-05-24T17:56:49.681Z,5.90
2023-05-24T17:59:16.668Z,5.33
2023-05-24T18:01:45.139Z,4.93
2023-05-24T18:04:12.203Z,5.40
2023-05-24T18:06:38.849Z,5.20
2023-05-24T18:09:05.656Z,5.23
2023-05-24T18:11:32.343Z,5.17
2023-05-24T18:14:00.818Z,6.13
2023-05-24T18:16:27.623Z,5.17
2023-05-24T18:18:54.900Z,5.30
2023-05-24T18:21:21.946Z,5.80
2023-05-24T18:23:48.628Z,5.60
2023-05-24T18:26:15.702Z,4.90
2023-05-24T18:28:42.986Z,5.57
2023-05-24T18:31:14.738Z,6.00
2023-05-24T18:33:41.936Z,5.30
2023-05-24T18:36:08.866Z,5.60
2023-05-24T18:38:36.932Z,6.47
2023-05-24T18:41:06.590Z,5.97
2023-05-24T18:43:33.603Z,5.60
2023-05-24T18:46:00.978Z,5.93
2023-05-24T18:48:27.709Z,5.70
2023-05-24T18:50:54.834Z,5.43
2023-05-24T18:53:21.622Z,6.00
2023-05-24T18:55:48.372Z,5.50
2023-05-24T18:58:15.531Z,5.43
2023-05-24T19:00:42.332Z,6.20
2023-05-24T19:03:11.980Z,5.80
2023-05-24T19:05:42.585Z,6.13
2023-05-24T19:08:10.551Z,5.43
2023-05-24T19:10:37.548Z,5.33
2023-05-24T19:13:04.298Z,6.00
2023-05-24T19:15:31.066Z,5.23
2023-05-24T19:17:58.275Z,6.00
2023-05-24T19:20:25.276Z,5.60
2023-05-24T19:22:52.051Z,5.17
2023-05-24T19:25:19.358Z,5.00
2023-05-24T19:30:22.346Z,5.63
2023-05-24T19:32:49.173Z,5.30
2023-05-24T19:35:16.059Z,5.73
2023-05-24T19:37:42.936Z,4.50
2023-05-24T19:40:10.242Z,4.50
2023-05-24T19:42:37.273Z,5.80
2023-05-24T19:45:04.967Z,5.40
2023-05-24T19:47:31.835Z,6.17
2023-05-24T19:49:58.615Z,5.60
2023-05-24T19:52:25.844Z,5.40
2023-05-24T19:54:52.630Z,6.17
2023-05-24T19:57:19.362Z,5.27
2023-05-24T19:59:46.033Z,5.00
2023-05-24T20:02:12.732Z,5.20
2023-05-24T20:04:41.872Z,5.60
2023-05-24T20:07:08.907Z,5.77
2023-05-24T20:09:36.057Z,6.53
2023-05-24T20:12:03.161Z,6.40
2023-05-24T20:14:33.066Z,7.20
2023-05-24T20:17:01.444Z,7.20
2023-05-24T20:19:28.221Z,5.93
2023-05-24T20:21:54.950Z,6.07
2023-05-24T20:24:21.734Z,5.60
2023-05-24T20:26:48.668Z,6.17
2023-05-24T20:29:15.494Z,7.30
2023-05-24T20:31:42.593Z,6.03
2023-05-24T20:34:09.603Z,6.60
2023-05-24T20:36:36.904Z,7.57
2023-05-24T20:39:03.841Z,6.10
2023-05-24T20:41:30.599Z,6.60
2023-05-24T20:43:57.289Z,6.63
2023-05-24T20:46:24.078Z,6.73
2023-05-24T20:48:51.522Z,6.27
2023-05-24T20:51:19.760Z,6.00
2023-05-24T20:53:46.798Z,6.17
2023-05-24T20:56:13.543Z,7.27
2023-05-24T20:58:41.287Z,6.17
2023-05-24T21:01:08.612Z,6.30
2023-05-24T21:03:35.661Z,7.13
2023-05-24T21:06:02.707Z,7.00
2023-05-24T21:08:29.297Z,6.60
2023-05-24T21:10:56.703Z,8.17
2023-05-24T21:13:25.738Z,6.90
2023-05-24T21:15:52.709Z,6.87
2023-05-24T21:18:19.341Z,7.23
2023-05-24T21:20:46.115Z,7.00
2023-05-24T21:23:12.727Z,7.57
2023-05-24T21:25:39.369Z,7.33
2023-05-24T21:28:06.029Z,6.30
2023-05-24T21:30:32.602Z,7.33
2023-05-24T21:32:59.655Z,7.10
2023-05-24T21:35:26.955Z,7.07
2023-05-24T21:37:53.967Z,7.40
2023-05-24T21:40:20.961Z,8.20
2023-05-24T21:42:47.594Z,7.90
2023-05-24T21:45:14.187Z,8.50
2023-05-24T21:47:42.702Z,7.50
2023-05-24T21:50:09.673Z,7.30
2023-05-24T21:52:36.801Z,7.63
2023-05-24T21:55:03.918Z,7.40
2023-05-24T21:57:30.817Z,8.90
2023-05-24T21:59:57.899Z,8.30
2023-05-24T22:02:24.479Z,8.63
2023-05-24T22:04:51.306Z,9.27
2023-05-24T22:07:17.935Z,8.23
2023-05-24T22:09:45.695Z,7.77
2023-05-24T22:12:12.283Z,8.03
2023-05-24T22:14:38.888Z,8.10
2023-05-24T22:17:05.675Z,8.63
2023-05-24T22:19:39.409Z,7.70
2023-05-24T22:22:08.396Z,7.27
2023-05-24T22:24:35.089Z,8.03
2023-05-24T22:27:02.812Z,7.80
2023-05-24T22:29:29.430Z,7.17
2023-05-24T22:31:56.464Z,7.93
2023-05-24T22:34:27.662Z,8.67
2023-05-24T22:36:55.276Z,8.53
2023-05-24T22:39:22.134Z,9.00
2023-05-24T22:41:49.135Z,7.93
2023-05-24T22:44:15.784Z,7.97
2023-05-24T22:46:42.534Z,7.90
2023-05-24T22:49:13.103Z,8.80
2023-05-24T22:51:44.150Z,8.57
2023-05-24T22:54:11.636Z,8.67
2023-05-24T22:56:38.790Z,8.73
2023-05-24T22:59:06.389Z,8.30
2023-05-24T23:01:33.633Z,8.53
2023-05-24T23:04:15.886Z,8.03
2023-05-24T23:06:46.943Z,7.80
2023-05-24T23:09:13.653Z,8.40
2023-05-24T23:11:40.311Z,8.50
2023-05-24T23:14:08.692Z,8.53
2023-05-24T23:16:40.518Z,8.33
2023-05-24T23:19:07.277Z,8.93
2023-05-24T23:21:34.024Z,8.47
2023-05-24T23:24:02.423Z,9.20
2023-05-24T23:26:29.140Z,9.30
2023-05-24T23:28:55.944Z,8.80
2023-05-24T23:31:22.825Z,9.27
2023-05-24T23:33:49.434Z,8.60
2023-05-24T23:36:16.420Z,8.80
2023-05-24T23:38:43.393Z,8.60
2023-05-24T23:41:09.967Z,8.73
2023-05-24T23:43:36.584Z,8.90
2023-05-24T23:46:03.180Z,8.70
2023-05-24T23:48:30.516Z,9.40
2023-05-24T23:50:57.107Z,9.93
2023-05-24T23:53:23.712Z,9.30
2023-05-24T23:55:50.377Z,9.93
2023-05-24T23:58:17.010Z,8.70
